Monday, November 19, 2018, 2:42 AM EST
Back to Local

KGON, Groton/new London Airport

Location: Groton, CT, United States Lat: 41.333
Local Time: 2:42 AM EST ( 7:42 GMT) Lon: -72.05
Time Zone: US/Eastern Elev: 9 ft

Show me the last for .
Show Decoded

2018-11-19 01:56 METAR KGON 190656Z AUTO 02004KT 10SM BKN090 04/M01 A3019 RMK AO2 SLP222
                 T00441006 =
2018-11-19 01:31 METAR KGON 190631Z AUTO 02004KT 10SM FEW023 BKN031 OVC090 04/M01 A3019 RMK AO2
                 T00441006 =
2018-11-19 00:56 METAR KGON 190556Z AUTO 36004KT 10SM OVC024 04/M02 A3020 RMK AO2 SLP227
                 T00441017 10044 20033 58021 =
2018-11-18 23:56 METAR KGON 190456Z AUTO 04005KT 10SM OVC022 04/M02 A3022 RMK AO2 SLP234
                 T00441022 400610011 =
2018-11-18 23:20 METAR KGON 190420Z AUTO 01003KT 10SM BKN028 03/M03 A3024 RMK AO2 T00331028 =
2018-11-18 22:56 METAR KGON 190356Z AUTO 03003KT 10SM SCT026 BKN050 BKN090 04/M04 A3025 RMK AO2
                 SLP241 T00391039 =
2018-11-18 21:56 METAR KGON 190256Z 04004KT 10SM OVC050 04/M04 A3026 RMK AO2 SLP248 T00391039
                 58017 =
2018-11-18 20:56 METAR KGON 190156Z 02004KT 10SM OVC047 04/M04 A3029 RMK AO2 SLP257 T00441044 =
2018-11-18 19:56 METAR KGON 190056Z 02004KT 10SM OVC044 04/M04 A3030 RMK AO2 SLP260 T00441044 =
2018-11-18 18:56 METAR KGON 182356Z 01003KT 10SM OVC044 04/M04 A3031 RMK AO2 SLP264 T00441044
                 10056 20044 58004 =
2018-11-18 17:56 METAR KGON 182256Z 03003KT 10SM OVC049 04/M05 A3032 RMK AO2 SLP266 T00441050 =
2018-11-18 16:56 METAR KGON 182156Z 00000KT 10SM OVC050 05/M05 A3032 RMK AO2 SLP268 T00501050 =
2018-11-18 15:56 METAR KGON 182056Z 28003KT 10SM BKN055 OVC090 05/M05 A3032 RMK AO2 SLP268
                 T00501050 55006 =
2018-11-18 14:56 METAR KGON 181956Z 00000KT 10SM BKN032 OVC090 06/M05 A3031 RMK AO2 SLP264
                 T00561050 =
2018-11-18 13:56 METAR KGON 181856Z 17003KT 10SM SCT035 OVC095 06/M06 A3032 RMK AO2 SLP268
                 T00561056 =
2018-11-18 12:56 METAR KGON 181756Z 20004KT 10SM FEW037 06/M05 A3034 RMK AO2 SLP274 T00561050
                 10061 20022 56016 =
2018-11-18 11:56 METAR KGON 181656Z 32003KT 10SM OVC110 06/M06 A3035 RMK AO2 SLP276 T00561061 =
2018-11-18 10:56 METAR KGON 181556Z 34005KT 10SM CLR 06/M06 A3037 RMK AO2 SLP284 T00611056 =
2018-11-18 09:56 METAR KGON 181456Z 32007KT 10SM FEW110 06/M06 A3039 RMK AO2 SLP290 T00561061
                 51010 =
2018-11-18 08:56 METAR KGON 181356Z 35009KT 10SM CLR 04/M07 A3039 RMK AO2 SLP289 T00391067 =
2018-11-18 07:56 METAR KGON 181256Z 32006KT 10SM CLR 03/M07 A3038 RMK AO2 SLP287 T00281067 =
2018-11-18 06:56 METAR KGON 181156Z 36008KT 10SM BKN120 02/M06 A3036 RMK AO2 SLP280 T00221061
                 10044 20011 51018 =
2018-11-18 05:56 METAR KGON 181056Z AUTO 36006KT 10SM CLR 03/M05 A3034 RMK AO2 SLP274 T00281050 =
2018-11-18 04:56 METAR KGON 180956Z AUTO 34006KT 10SM CLR 02/M04 A3033 RMK AO2 SLP270 T00171039 =
2018-11-18 03:56 METAR KGON 180856Z AUTO 34006KT 10SM FEW047 02/M04 A3031 RMK AO2 SLP262
                 T00221044 53013 =
2018-11-18 02:56 METAR KGON 180756Z AUTO 31007KT 10SM CLR 03/M03 A3029 RMK AO2 SLP258 T00281028 =

Support USWX by starting your Amazon purchase here.